createdAt,value
2023-09-29T00:02:48.215Z,17.10
2023-09-29T00:07:53.754Z,16.98
2023-09-29T00:12:55.308Z,16.93
2023-09-29T00:17:56.827Z,16.75
2023-09-29T00:23:00.438Z,16.80
2023-09-29T00:28:01.989Z,16.90
2023-09-29T00:33:04.706Z,16.90
2023-09-29T00:38:06.924Z,16.95
2023-09-29T00:43:09.540Z,16.61
2023-09-29T00:48:11.677Z,16.67
2023-09-29T00:53:16.654Z,16.56
2023-09-29T00:58:18.569Z,16.64
2023-09-29T01:03:20.297Z,16.61
2023-09-29T01:08:24.211Z,16.43
2023-09-29T01:13:25.818Z,16.49
2023-09-29T01:18:27.576Z,16.44
2023-09-29T01:23:32.232Z,16.51
2023-09-29T01:28:34.796Z,16.45
2023-09-29T01:33:40.361Z,16.27
2023-09-29T01:38:42.013Z,16.35
2023-09-29T01:43:43.541Z,16.32
2023-09-29T01:48:46.114Z,16.23
2023-09-29T01:53:47.964Z,16.19
2023-09-29T01:58:50.275Z,16.05
2023-09-29T02:03:52.485Z,16.18
2023-09-29T02:08:54.174Z,16.14
2023-09-29T02:13:55.875Z,16.17
2023-09-29T02:18:57.714Z,16.03
2023-09-29T02:24:00.077Z,16.07
2023-09-29T02:29:02.184Z,16.13
2023-09-29T02:34:04.496Z,16.10
2023-09-29T02:39:06.101Z,15.99
2023-09-29T02:44:08.349Z,15.74
2023-09-29T02:49:10.498Z,15.71
2023-09-29T02:54:12.068Z,15.80
2023-09-29T02:59:13.603Z,15.62
2023-09-29T03:04:15.101Z,15.85
2023-09-29T03:09:19.785Z,15.76
2023-09-29T03:14:22.212Z,15.70
2023-09-29T03:19:23.715Z,15.65
2023-09-29T03:24:30.411Z,15.56
2023-09-29T03:29:32.306Z,15.59
2023-09-29T03:34:33.832Z,15.70
2023-09-29T03:39:35.356Z,15.63
2023-09-29T03:44:37.944Z,15.65
2023-09-29T03:49:40.146Z,15.62
2023-09-29T03:54:41.711Z,15.60
2023-09-29T03:59:43.799Z,15.53
2023-09-29T04:04:45.299Z,15.56
2023-09-29T04:09:47.201Z,15.25
2023-09-29T04:14:48.828Z,15.43
2023-09-29T04:19:50.530Z,15.40
2023-09-29T04:24:52.506Z,15.26
2023-09-29T04:29:54.195Z,15.30
2023-09-29T04:34:55.844Z,15.26
2023-09-29T04:39:58.445Z,15.28
2023-09-29T04:44:59.969Z,15.31
2023-09-29T04:50:01.549Z,15.16
2023-09-29T04:55:03.130Z,15.08
2023-09-29T05:00:05.089Z,15.01
2023-09-29T05:05:07.222Z,15.12
2023-09-29T05:10:09.186Z,15.08
2023-09-29T05:15:11.257Z,15.12
2023-09-29T05:20:13.868Z,15.15
2023-09-29T05:25:15.450Z,15.08
2023-09-29T05:30:17.792Z,15.02
2023-09-29T05:35:19.295Z,14.99
2023-09-29T05:40:20.911Z,15.13
2023-09-29T05:45:22.581Z,15.09
2023-09-29T05:50:24.140Z,15.07
2023-09-29T05:55:26.387Z,15.14
2023-09-29T06:00:28.327Z,15.30
2023-09-29T06:05:30.634Z,15.36
2023-09-29T06:10:32.229Z,15.36
2023-09-29T06:15:33.849Z,15.43
2023-09-29T06:20:35.576Z,15.51
2023-09-29T06:25:37.085Z,15.67
2023-09-29T06:30:39.027Z,15.70
2023-09-29T06:35:42.199Z,15.83
2023-09-29T06:40:45.210Z,15.97
2023-09-29T06:46:00.358Z,16.02
2023-09-29T06:51:03.684Z,16.19
2023-09-29T06:56:05.261Z,16.43
2023-09-29T07:01:08.585Z,16.43
2023-09-29T07:06:10.270Z,16.32
2023-09-29T07:11:11.830Z,16.62
2023-09-29T07:16:14.710Z,16.78
2023-09-29T07:21:16.334Z,16.93
2023-09-29T07:26:17.946Z,17.14
2023-09-29T07:31:19.605Z,17.26
2023-09-29T07:36:21.217Z,17.26
2023-09-29T07:41:22.716Z,17.47
2023-09-29T07:46:24.344Z,17.57
2023-09-29T07:51:26.306Z,17.76
2023-09-29T07:56:27.832Z,18.00
2023-09-29T08:01:29.324Z,17.98
2023-09-29T08:06:30.881Z,18.19
2023-09-29T08:11:32.357Z,18.61
2023-09-29T08:16:35.310Z,19.02
2023-09-29T08:21:36.968Z,18.81
2023-09-29T08:26:39.091Z,18.75
2023-09-29T08:31:40.829Z,19.25
2023-09-29T08:36:42.821Z,19.60
2023-09-29T08:41:55.936Z,20.19
2023-09-29T08:47:02.112Z,20.15
2023-09-29T08:52:04.612Z,19.89
2023-09-29T08:57:07.275Z,20.09
2023-09-29T09:02:09.363Z,20.33
2023-09-29T09:07:11.042Z,20.58
2023-09-29T09:12:12.550Z,20.98
2023-09-29T09:17:14.133Z,21.18
2023-09-29T09:22:16.677Z,21.43
2023-09-29T09:27:19.500Z,21.33
2023-09-29T09:32:28.461Z,21.66
2023-09-29T09:37:30.220Z,22.11
2023-09-29T09:42:32.284Z,22.35
2023-09-29T09:47:34.306Z,22.12
2023-09-29T09:52:36.707Z,22.45
2023-09-29T09:57:39.940Z,22.79
2023-09-29T10:02:47.447Z,23.23
2023-09-29T10:07:52.992Z,23.60
2023-09-29T10:12:56.194Z,23.63
2023-09-29T10:18:01.588Z,23.87
2023-09-29T10:23:07.627Z,24.12
2023-09-29T10:28:13.605Z,24.66
2023-09-29T10:33:15.198Z,24.40
2023-09-29T10:38:27.681Z,25.30
2023-09-29T10:43:29.227Z,25.29
2023-09-29T10:48:31.080Z,25.53
2023-09-29T10:53:37.482Z,25.80
2023-09-29T10:58:42.129Z,25.39
2023-09-29T11:03:44.962Z,25.21
2023-09-29T11:08:54.955Z,25.53
2023-09-29T11:13:58.380Z,25.97
2023-09-29T11:19:16.863Z,25.58
2023-09-29T11:24:20.435Z,25.32
2023-09-29T11:29:29.292Z,25.30
2023-09-29T11:34:32.985Z,25.28
2023-09-29T11:39:34.581Z,25.16
2023-09-29T11:44:36.270Z,25.62
2023-09-29T11:49:37.806Z,25.45
2023-09-29T11:54:39.343Z,25.52
2023-09-29T11:59:41.278Z,25.53
2023-09-29T12:04:43.190Z,25.29
2023-09-29T12:09:44.744Z,25.36
2023-09-29T12:14:46.436Z,25.16
2023-09-29T12:19:48.194Z,25.19
2023-09-29T12:24:51.083Z,25.20
2023-09-29T12:29:52.778Z,25.04
2023-09-29T12:34:55.030Z,25.21
2023-09-29T12:39:56.532Z,25.01
2023-09-29T12:44:58.296Z,25.26
2023-09-29T12:49:59.788Z,24.99
2023-09-29T12:55:01.342Z,25.23
2023-09-29T13:00:05.785Z,25.08
2023-09-29T13:05:09.968Z,25.13
2023-09-29T13:10:11.551Z,25.09
2023-09-29T13:15:13.091Z,25.24
2023-09-29T13:20:15.060Z,25.16
2023-09-29T13:25:16.681Z,25.19
2023-09-29T13:30:18.467Z,25.25
2023-09-29T13:35:20.066Z,25.36
2023-09-29T13:40:22.218Z,25.43
2023-09-29T13:45:23.926Z,25.52
2023-09-29T13:50:25.634Z,25.31
2023-09-29T13:55:27.220Z,25.15
2023-09-29T14:00:28.738Z,25.41
2023-09-29T14:05:30.310Z,25.27
2023-09-29T14:10:32.788Z,25.22
2023-09-29T14:15:34.348Z,25.21
2023-09-29T14:20:36.972Z,25.32
2023-09-29T14:25:38.917Z,25.21
2023-09-29T14:30:42.157Z,25.22
2023-09-29T14:35:49.187Z,25.19
2023-09-29T14:40:51.093Z,25.30
2023-09-29T14:45:53.416Z,25.19
2023-09-29T14:50:55.049Z,25.29
2023-09-29T14:55:56.567Z,25.26
2023-09-29T15:00:58.550Z,25.19
2023-09-29T15:06:01.284Z,24.92
2023-09-29T15:11:03.988Z,24.90
2023-09-29T15:16:11.396Z,24.79
2023-09-29T15:21:12.978Z,24.66
2023-09-29T15:26:14.479Z,24.56
2023-09-29T15:31:16.007Z,24.52
2023-09-29T15:36:17.965Z,24.53
2023-09-29T15:41:19.900Z,24.49
2023-09-29T15:46:21.440Z,24.40
2023-09-29T15:51:23.089Z,24.39
2023-09-29T15:56:24.679Z,24.22
2023-09-29T16:01:26.257Z,24.04
2023-09-29T16:06:27.872Z,23.96
2023-09-29T16:11:29.466Z,23.98
2023-09-29T16:16:31.141Z,23.85
2023-09-29T16:21:32.709Z,23.80
2023-09-29T16:26:34.305Z,23.77
2023-09-29T16:31:35.866Z,23.77
2023-09-29T16:36:37.477Z,23.68
2023-09-29T16:41:39.007Z,23.52
2023-09-29T16:46:40.612Z,23.49
2023-09-29T16:51:42.095Z,23.36
2023-09-29T16:56:43.577Z,23.28
2023-09-29T17:01:45.080Z,23.30
2023-09-29T17:06:46.608Z,23.27
2023-09-29T17:11:48.619Z,23.30
2023-09-29T17:16:50.245Z,23.18
2023-09-29T17:21:51.763Z,23.20
2023-09-29T17:26:53.392Z,23.08
2023-09-29T17:31:55.441Z,23.04
2023-09-29T17:36:56.934Z,22.99
2023-09-29T17:42:00.126Z,22.90
2023-09-29T17:47:01.712Z,22.83
2023-09-29T17:52:03.716Z,22.82
2023-09-29T17:57:05.241Z,22.74
2023-09-29T18:02:07.081Z,22.69
2023-09-29T18:07:10.795Z,22.64
2023-09-29T18:12:12.352Z,22.48
2023-09-29T18:17:13.921Z,22.35
2023-09-29T18:22:15.443Z,22.42
2023-09-29T18:27:17.753Z,22.22
2023-09-29T18:32:19.390Z,22.25
2023-09-29T18:37:22.423Z,22.19
2023-09-29T18:42:25.634Z,22.32
2023-09-29T18:47:27.197Z,22.36
2023-09-29T18:52:28.775Z,22.33
2023-09-29T18:57:30.402Z,22.35
2023-09-29T19:02:33.071Z,22.31
2023-09-29T19:07:34.684Z,22.41
2023-09-29T19:12:36.745Z,22.42
2023-09-29T19:17:39.137Z,22.47
2023-09-29T19:22:41.101Z,22.53
2023-09-29T19:27:42.583Z,22.56
2023-09-29T19:32:45.239Z,22.45
2023-09-29T19:37:47.090Z,22.46
2023-09-29T19:42:49.112Z,22.48
2023-09-29T19:47:51.468Z,22.41
2023-09-29T19:52:53.007Z,22.40
2023-09-29T19:57:54.488Z,22.39
2023-09-29T20:02:56.048Z,22.40
2023-09-29T20:07:57.698Z,22.41
2023-09-29T20:12:59.226Z,22.39
2023-09-29T20:18:01.191Z,22.34
2023-09-29T20:23:03.590Z,22.31
2023-09-29T20:28:05.460Z,22.24
2023-09-29T20:33:08.743Z,22.20
2023-09-29T20:38:10.932Z,22.17
2023-09-29T20:43:12.549Z,22.09
2023-09-29T20:48:17.987Z,22.05
2023-09-29T20:53:20.934Z,22.03
2023-09-29T20:58:22.905Z,21.98
2023-09-29T21:03:24.509Z,21.92
2023-09-29T21:08:26.060Z,21.88
2023-09-29T21:13:28.189Z,21.84
2023-09-29T21:18:29.726Z,21.86
2023-09-29T21:23:31.719Z,21.84
2023-09-29T21:28:35.195Z,21.83
2023-09-29T21:33:36.731Z,21.84
2023-09-29T21:38:38.245Z,21.79
2023-09-29T21:43:40.028Z,21.81
2023-09-29T21:48:41.564Z,21.79
2023-09-29T21:53:43.109Z,21.76
2023-09-29T21:58:44.604Z,21.69
2023-09-29T22:03:46.349Z,21.61
2023-09-29T22:08:48.518Z,21.58
2023-09-29T22:13:50.404Z,21.58
2023-09-29T22:18:52.920Z,21.48
2023-09-29T22:23:54.575Z,21.49
2023-09-29T22:28:57.368Z,21.41
2023-09-29T22:33:59.272Z,21.35
2023-09-29T22:39:01.143Z,21.36
2023-09-29T22:44:02.662Z,21.40
2023-09-29T22:49:04.252Z,21.29
2023-09-29T22:54:08.734Z,21.25
2023-09-29T22:59:12.953Z,21.20
2023-09-29T23:04:14.450Z,21.17
2023-09-29T23:09:16.036Z,21.15
2023-09-29T23:14:17.812Z,21.11
2023-09-29T23:19:19.760Z,21.10
2023-09-29T23:24:22.376Z,21.01
2023-09-29T23:29:23.991Z,21.00
2023-09-29T23:34:25.724Z,20.90
2023-09-29T23:39:27.267Z,20.85
2023-09-29T23:44:32.413Z,20.88
2023-09-29T23:49:33.889Z,20.75
2023-09-29T23:54:35.449Z,20.67
2023-09-29T23:59:36.940Z,20.54
